createdAt,value
2023-04-16T00:01:06.945Z,7.10
2023-04-16T00:03:34.041Z,6.50
2023-04-16T00:06:01.211Z,5.95
2023-04-16T00:08:28.086Z,6.28
2023-04-16T00:10:54.964Z,7.38
2023-04-16T00:13:22.727Z,7.15
2023-04-16T00:15:49.653Z,7.40
2023-04-16T00:18:16.525Z,6.90
2023-04-16T00:20:43.357Z,6.65
2023-04-16T00:23:10.262Z,7.43
2023-04-16T00:25:37.074Z,7.10
2023-04-16T00:28:05.628Z,7.95
2023-04-16T00:30:32.506Z,6.78
2023-04-16T00:32:59.908Z,8.27
2023-04-16T00:35:27.132Z,7.53
2023-04-16T00:37:54.039Z,8.52
2023-04-16T00:40:20.986Z,7.40
2023-04-16T00:42:48.211Z,7.43
2023-04-16T00:45:15.178Z,7.30
2023-04-16T00:47:42.686Z,7.05
2023-04-16T00:50:10.632Z,7.80
2023-04-16T00:52:38.631Z,6.53
2023-04-16T00:55:07.840Z,6.28
2023-04-16T00:57:35.062Z,7.60
2023-04-16T01:00:02.889Z,6.82
2023-04-16T01:02:29.875Z,7.28
2023-04-16T01:04:56.994Z,7.65
2023-04-16T01:07:23.843Z,6.72
2023-04-16T01:09:50.817Z,6.78
2023-04-16T01:12:17.607Z,6.70
2023-04-16T01:14:44.506Z,7.03
2023-04-16T01:17:11.889Z,7.40
2023-04-16T01:19:38.777Z,7.40
2023-04-16T01:22:06.297Z,6.60
2023-04-16T01:24:35.953Z,7.15
2023-04-16T01:27:03.687Z,6.95
2023-04-16T01:29:31.205Z,7.53
2023-04-16T01:31:59.683Z,7.22
2023-04-16T01:34:31.243Z,8.40
2023-04-16T01:36:58.440Z,7.70
2023-04-16T01:39:25.386Z,8.48
2023-04-16T01:41:52.368Z,8.20
2023-04-16T01:44:19.207Z,7.45
2023-04-16T01:46:46.467Z,7.72
2023-04-16T01:49:13.906Z,8.02
2023-04-16T01:51:41.130Z,8.38
2023-04-16T01:54:08.276Z,7.45
2023-04-16T01:56:35.386Z,7.25
2023-04-16T01:59:02.848Z,7.15
2023-04-16T02:01:35.686Z,7.53
2023-04-16T02:04:03.128Z,7.57
2023-04-16T02:06:30.725Z,7.82
2023-04-16T02:08:57.585Z,6.82
2023-04-16T02:11:26.667Z,7.68
2023-04-16T02:13:54.345Z,7.97
2023-04-16T02:16:21.332Z,7.13
2023-04-16T02:19:00.113Z,6.93
2023-04-16T02:21:31.800Z,8.65
2023-04-16T02:23:58.713Z,7.00
2023-04-16T02:26:29.852Z,7.78
2023-04-16T02:29:02.069Z,8.83
2023-04-16T02:31:37.834Z,9.00
2023-04-16T02:34:05.461Z,7.22
2023-04-16T02:36:33.293Z,7.93
2023-04-16T02:39:00.193Z,8.65
2023-04-16T02:41:27.017Z,7.45
2023-04-16T02:43:53.945Z,9.05
2023-04-16T02:46:20.983Z,8.35
2023-04-16T02:48:47.969Z,7.32
2023-04-16T02:51:14.911Z,8.65
2023-04-16T02:53:46.062Z,7.78
2023-04-16T02:56:13.728Z,8.13
2023-04-16T02:58:40.805Z,7.72
2023-04-16T03:01:10.467Z,8.27
2023-04-16T03:03:37.432Z,8.00
2023-04-16T03:06:04.463Z,8.65
2023-04-16T03:08:31.359Z,8.25
2023-04-16T03:10:58.265Z,7.50
2023-04-16T03:13:25.270Z,7.60
2023-04-16T03:15:52.194Z,7.10
2023-04-16T03:18:19.084Z,7.95
2023-04-16T03:20:46.143Z,7.38
2023-04-16T03:23:13.134Z,7.80
2023-04-16T03:25:40.794Z,8.27
2023-04-16T03:28:11.029Z,7.60
2023-04-16T03:30:38.930Z,8.38
2023-04-16T03:33:06.987Z,7.97
2023-04-16T03:35:33.941Z,8.05
2023-04-16T03:38:01.560Z,7.70
2023-04-16T03:40:29.135Z,8.02
2023-04-16T03:42:56.419Z,9.13
2023-04-16T03:45:23.266Z,7.57
2023-04-16T03:47:52.846Z,8.02
2023-04-16T03:50:22.663Z,7.93
2023-04-16T03:52:49.547Z,7.22
2023-04-16T03:55:17.874Z,7.20
2023-04-16T03:57:45.685Z,7.90
2023-04-16T04:00:15.427Z,8.65
2023-04-16T04:02:53.475Z,7.75
2023-04-16T04:05:20.738Z,7.22
2023-04-16T04:07:49.002Z,7.20
2023-04-16T04:10:16.934Z,6.95
2023-04-16T04:12:44.320Z,7.63
2023-04-16T04:15:12.486Z,7.72
2023-04-16T04:17:39.362Z,7.85
2023-04-16T04:20:07.027Z,9.43
2023-04-16T04:22:33.987Z,8.65
2023-04-16T04:25:00.867Z,8.13
2023-04-16T04:27:30.515Z,8.40
2023-04-16T04:29:58.105Z,8.30
2023-04-16T04:32:25.209Z,8.18
2023-04-16T04:34:52.159Z,8.57
2023-04-16T04:37:19.038Z,7.85
2023-04-16T04:39:46.414Z,7.43
2023-04-16T04:42:13.251Z,8.88
2023-04-16T04:44:40.206Z,8.13
2023-04-16T04:47:08.392Z,8.52
2023-04-16T04:49:35.492Z,8.75
2023-04-16T04:52:03.169Z,8.85
2023-04-16T04:54:32.691Z,10.43
2023-04-16T04:57:00.161Z,8.38
2023-04-16T04:59:28.880Z,9.20
2023-04-16T05:01:55.926Z,8.77
2023-04-16T05:04:22.910Z,8.57
2023-04-16T05:06:49.835Z,10.05
2023-04-16T05:09:17.492Z,10.18
2023-04-16T05:11:44.390Z,9.60
2023-04-16T05:14:34.060Z,10.40
2023-04-16T05:17:01.158Z,9.90
2023-04-16T05:19:28.025Z,10.50
2023-04-16T05:21:55.037Z,10.07
2023-04-16T05:24:22.657Z,9.43
2023-04-16T05:26:49.499Z,9.50
2023-04-16T05:29:16.344Z,9.98
2023-04-16T05:31:43.273Z,10.05
2023-04-16T05:34:10.204Z,11.15
2023-04-16T05:36:37.022Z,12.05
2023-04-16T05:39:04.072Z,11.43
2023-04-16T05:41:31.016Z,11.07
2023-04-16T05:43:57.965Z,11.93
2023-04-16T05:46:24.916Z,11.57
2023-04-16T05:48:52.121Z,12.10
2023-04-16T05:51:19.054Z,13.15
2023-04-16T05:53:46.020Z,13.80
2023-04-16T05:56:12.958Z,12.70
2023-04-16T05:58:39.844Z,12.25
2023-04-16T06:01:07.676Z,13.52
2023-04-16T06:03:34.748Z,23.98
2023-04-16T06:06:01.862Z,14.25
2023-04-16T06:08:28.930Z,12.90
2023-04-16T06:10:56.700Z,14.75
2023-04-16T06:13:23.745Z,11.45
2023-04-16T06:15:50.789Z,12.50
2023-04-16T06:18:17.760Z,12.52
2023-04-16T06:20:44.741Z,10.93
2023-04-16T06:23:11.746Z,12.32
2023-04-16T06:25:38.704Z,12.20
2023-04-16T06:28:06.194Z,12.52
2023-04-16T06:30:33.687Z,12.15
2023-04-16T06:33:01.051Z,14.25
2023-04-16T06:35:28.329Z,15.60
2023-04-16T06:37:55.695Z,20.73
2023-04-16T06:40:22.916Z,17.15
2023-04-16T06:42:49.920Z,15.95
2023-04-16T06:45:16.999Z,20.20
2023-04-16T06:47:43.999Z,18.52
2023-04-16T06:50:11.293Z,16.95
2023-04-16T06:52:38.373Z,17.42
2023-04-16T06:55:07.312Z,20.63
2023-04-16T06:57:35.633Z,14.75
2023-04-16T07:00:05.274Z,16.00
2023-04-16T07:02:32.322Z,16.45
2023-04-16T07:04:59.480Z,16.52
2023-04-16T07:07:26.469Z,15.52
2023-04-16T07:09:53.439Z,16.30
2023-04-16T07:12:22.476Z,15.68
2023-04-16T07:14:49.998Z,15.70
2023-04-16T07:17:17.026Z,15.48
2023-04-16T07:19:44.495Z,15.60
2023-04-16T07:22:11.417Z,15.32
2023-04-16T07:24:38.372Z,15.68
2023-04-16T07:40:38.009Z,15.60
2023-04-16T07:43:05.028Z,16.05
2023-04-16T07:48:34.214Z,17.17
2023-04-16T07:51:01.171Z,16.50
2023-04-16T07:53:28.214Z,15.73
2023-04-16T07:55:55.263Z,16.45
2023-04-16T07:58:22.311Z,16.15
2023-04-16T08:00:50.858Z,16.70
2023-04-16T08:03:18.674Z,16.05
2023-04-16T08:05:45.793Z,16.88
2023-04-16T08:08:12.952Z,17.75
2023-04-16T08:10:39.949Z,16.88
2023-04-16T08:13:06.947Z,18.00
2023-04-16T08:15:34.023Z,17.42
2023-04-16T08:18:01.426Z,17.25
2023-04-16T08:20:28.897Z,17.67
2023-04-16T08:22:56.602Z,17.60
2023-04-16T08:25:24.834Z,18.00
2023-04-16T08:27:51.895Z,17.42
2023-04-16T08:30:19.095Z,18.73
2023-04-16T08:32:48.616Z,17.23
2023-04-16T08:35:17.062Z,17.48
2023-04-16T08:37:44.122Z,17.60
2023-04-16T08:40:11.585Z,16.73
2023-04-16T08:42:58.149Z,17.75
2023-04-16T08:45:27.263Z,17.48
2023-04-16T08:47:54.573Z,18.35
2023-04-16T08:50:26.751Z,17.25
2023-04-16T08:52:58.711Z,17.20
2023-04-16T08:55:37.708Z,21.65
2023-04-16T08:58:13.900Z,19.45
2023-04-16T09:00:43.758Z,18.35
2023-04-16T09:03:11.554Z,17.48
2023-04-16T09:05:39.405Z,18.42
2023-04-16T09:08:07.170Z,17.73
2023-04-16T09:10:35.096Z,18.52
2023-04-16T09:13:02.159Z,18.15
2023-04-16T09:15:29.638Z,18.80
2023-04-16T09:17:57.854Z,18.52
2023-04-16T09:20:25.114Z,17.98
2023-04-16T09:22:52.432Z,17.65
2023-04-16T09:25:22.811Z,18.15
2023-04-16T09:27:51.315Z,17.73
2023-04-16T09:30:22.342Z,17.83
2023-04-16T09:32:50.708Z,19.48
2023-04-16T09:35:20.946Z,19.90
2023-04-16T09:37:58.295Z,18.50
2023-04-16T09:40:30.588Z,17.88
2023-04-16T09:42:58.589Z,17.83
2023-04-16T09:45:25.710Z,18.08
2023-04-16T09:47:52.781Z,18.63
2023-04-16T09:50:20.688Z,17.83
2023-04-16T09:52:51.753Z,17.52
2023-04-16T09:55:24.189Z,17.45
2023-04-16T09:57:59.493Z,17.95
2023-04-16T10:00:26.626Z,17.52
2023-04-16T10:03:07.237Z,17.33
2023-04-16T10:05:34.895Z,16.80
2023-04-16T10:08:04.948Z,17.00
2023-04-16T10:10:32.807Z,16.80
2023-04-16T10:13:00.219Z,16.80
2023-04-16T10:15:27.960Z,17.42
2023-04-16T10:17:56.199Z,16.85
2023-04-16T10:20:24.250Z,16.48
2023-04-16T10:22:51.449Z,17.70
2023-04-16T10:25:18.833Z,17.13
2023-04-16T10:27:46.480Z,17.60
2023-04-16T10:30:15.680Z,16.42
2023-04-16T10:32:42.769Z,16.50
2023-04-16T10:35:09.795Z,17.05
2023-04-16T10:37:37.673Z,17.08
2023-04-16T10:40:23.628Z,16.92
2023-04-16T10:42:58.098Z,16.52
2023-04-16T10:45:32.989Z,16.85
2023-04-16T10:48:03.157Z,15.95
2023-04-16T10:50:37.307Z,15.70
2023-04-16T10:53:23.000Z,16.23
2023-04-16T10:56:05.831Z,14.90
2023-04-16T10:58:36.458Z,14.57
2023-04-16T11:01:13.871Z,14.75
2023-04-16T11:03:47.119Z,14.50
2023-04-16T11:06:24.039Z,14.70
2023-04-16T11:08:55.460Z,15.32
2023-04-16T11:11:23.499Z,15.02
2023-04-16T11:13:55.903Z,15.90
2023-04-16T11:16:24.768Z,15.52
2023-04-16T11:18:51.971Z,15.65
2023-04-16T11:21:20.676Z,16.42
2023-04-16T11:23:51.599Z,15.90
2023-04-16T11:26:28.171Z,16.45
2023-04-16T11:28:56.829Z,15.10
2023-04-16T11:31:24.824Z,14.63
2023-04-16T11:33:51.860Z,13.85
2023-04-16T11:36:19.009Z,14.27
2023-04-16T11:38:47.835Z,13.07
2023-04-16T11:41:20.056Z,12.80
2023-04-16T11:43:46.897Z,12.32
2023-04-16T11:46:26.378Z,12.48
2023-04-16T11:48:56.184Z,11.52
2023-04-16T11:51:23.862Z,11.38
2023-04-16T11:53:54.392Z,11.00
2023-04-16T11:56:33.411Z,10.57
2023-04-16T11:59:17.847Z,10.25
2023-04-16T12:04:18.914Z,10.07
2023-04-16T12:07:06.022Z,9.18
2023-04-16T12:09:37.037Z,8.25
2023-04-16T12:12:05.847Z,8.50
2023-04-16T12:14:33.248Z,10.45
2023-04-16T12:17:33.154Z,8.70
2023-04-16T12:20:03.846Z,9.50
2023-04-16T12:22:33.629Z,7.80
2023-04-16T12:25:04.319Z,9.15
2023-04-16T12:27:53.990Z,9.20
2023-04-16T12:30:23.433Z,8.43
2023-04-16T12:32:53.686Z,9.32
2023-04-16T12:35:34.405Z,10.10
2023-04-16T12:38:01.584Z,8.82
2023-04-16T12:40:28.648Z,8.82
2023-04-16T12:42:55.796Z,10.48
2023-04-16T12:45:22.936Z,7.93
2023-04-16T12:47:50.650Z,8.68
2023-04-16T12:50:18.193Z,9.20
2023-04-16T12:52:45.275Z,9.48
2023-04-16T12:55:14.164Z,9.65
2023-04-16T12:57:41.543Z,8.85
2023-04-16T13:00:10.838Z,10.75
2023-04-16T13:02:38.158Z,8.70
2023-04-16T13:05:05.644Z,8.02
2023-04-16T13:07:34.106Z,9.02
2023-04-16T13:10:01.236Z,8.43
2023-04-16T13:12:28.642Z,8.77
2023-04-16T13:14:56.037Z,8.38
2023-04-16T13:17:23.057Z,8.20
2023-04-16T13:19:50.063Z,9.45
2023-04-16T13:22:17.190Z,8.57
2023-04-16T13:24:44.219Z,8.38
2023-04-16T13:27:11.550Z,8.20
2023-04-16T13:29:38.679Z,8.30
2023-04-16T13:32:06.392Z,6.70
2023-04-16T13:34:33.552Z,7.43
2023-04-16T13:37:00.532Z,6.75
2023-04-16T13:39:27.541Z,7.32
2023-04-16T13:41:54.473Z,7.53
2023-04-16T13:44:21.884Z,8.13
2023-04-16T13:46:48.907Z,7.53
2023-04-16T13:49:16.354Z,8.48
2023-04-16T13:51:44.931Z,7.88
2023-04-16T13:54:12.105Z,7.47
2023-04-16T13:56:39.625Z,7.53
2023-04-16T13:59:06.780Z,8.45
2023-04-16T14:01:33.981Z,7.18
2023-04-16T14:04:06.435Z,8.05
2023-04-16T14:06:34.700Z,7.40
2023-04-16T14:09:02.154Z,7.20
2023-04-16T14:11:29.185Z,8.02
2023-04-16T14:13:56.344Z,7.35
2023-04-16T14:16:23.584Z,7.20
2023-04-16T14:18:52.093Z,7.30
2023-04-16T14:21:19.388Z,7.05
2023-04-16T14:23:46.845Z,8.38
2023-04-16T14:26:13.985Z,7.57
2023-04-16T14:28:41.284Z,7.82
2023-04-16T14:31:08.591Z,8.38
2023-04-16T14:33:35.640Z,8.32
2023-04-16T14:36:03.584Z,7.65
2023-04-16T14:38:31.397Z,7.82
2023-04-16T14:41:00.244Z,8.15
2023-04-16T14:43:27.447Z,8.75
2023-04-16T14:45:54.576Z,7.20
2023-04-16T14:48:22.192Z,9.32
2023-04-16T14:50:49.295Z,8.18
2023-04-16T14:53:16.451Z,7.38
2023-04-16T14:55:43.425Z,10.07
2023-04-16T14:58:10.898Z,8.88
2023-04-16T15:00:37.868Z,10.00
2023-04-16T15:03:05.837Z,8.98
2023-04-16T15:05:33.066Z,8.88
2023-04-16T15:08:00.752Z,8.80
2023-04-16T15:10:28.153Z,8.05
2023-04-16T15:12:55.056Z,7.47
2023-04-16T15:15:22.002Z,9.13
2023-04-16T15:17:50.510Z,9.80
2023-04-16T15:20:17.697Z,8.00
2023-04-16T15:22:44.584Z,8.25
2023-04-16T15:25:11.525Z,7.63
2023-04-16T15:27:38.582Z,7.93
2023-04-16T15:30:06.563Z,8.27
2023-04-16T15:32:33.469Z,7.93
2023-04-16T15:35:02.391Z,7.80
2023-04-16T15:37:29.376Z,8.15
2023-04-16T15:39:56.752Z,7.50
2023-04-16T15:42:24.790Z,7.88
2023-04-16T15:44:51.689Z,9.40
2023-04-16T15:47:18.696Z,8.70
2023-04-16T15:49:45.681Z,8.65
2023-04-16T15:52:12.569Z,8.73
2023-04-16T15:54:39.739Z,9.48
2023-04-16T15:57:06.636Z,9.25
2023-04-16T15:59:33.544Z,9.77
2023-04-16T16:02:01.197Z,9.98
2023-04-16T16:04:28.618Z,9.13
2023-04-16T16:06:56.539Z,9.70
2023-04-16T16:09:26.896Z,10.18
2023-04-16T16:11:54.563Z,9.80
2023-04-16T16:14:22.306Z,9.93
2023-04-16T16:16:49.491Z,10.57
2023-04-16T16:19:16.706Z,10.07
2023-04-16T16:21:43.596Z,11.65
2023-04-16T16:24:10.552Z,10.65
2023-04-16T16:26:37.696Z,11.63
2023-04-16T16:29:05.022Z,12.32
2023-04-16T16:31:31.949Z,10.68
2023-04-16T16:33:58.899Z,12.57
2023-04-16T16:36:26.629Z,11.45
2023-04-16T16:38:53.685Z,10.02
2023-04-16T16:41:20.688Z,11.27
2023-04-16T16:43:47.577Z,11.40
2023-04-16T16:46:14.699Z,11.15
2023-04-16T16:48:41.514Z,10.48
2023-04-16T16:51:11.480Z,11.73
2023-04-16T16:53:38.446Z,11.45
2023-04-16T16:56:05.827Z,10.07
2023-04-16T16:58:32.670Z,11.85
2023-04-16T17:00:59.948Z,11.23
2023-04-16T17:03:27.091Z,10.95
2023-04-16T17:05:54.245Z,11.77
2023-04-16T17:08:21.366Z,12.20
2023-04-16T17:10:48.392Z,12.25
2023-04-16T17:13:19.767Z,12.45
2023-04-16T17:15:47.069Z,11.70
2023-04-16T17:18:14.028Z,12.23
2023-04-16T17:20:41.176Z,12.60
2023-04-16T17:23:08.234Z,13.27
2023-04-16T17:25:35.232Z,13.32
2023-04-16T17:28:02.931Z,12.63
2023-04-16T17:30:32.141Z,13.10
2023-04-16T17:32:59.220Z,12.50
2023-04-16T17:35:26.242Z,13.07
2023-04-16T17:37:53.111Z,12.45
2023-04-16T17:40:19.948Z,12.63
2023-04-16T17:42:48.907Z,14.90
2023-04-16T17:45:16.377Z,14.70
2023-04-16T17:47:44.513Z,17.05
2023-04-16T17:50:12.117Z,19.05
2023-04-16T17:52:39.132Z,13.40
2023-04-16T17:55:14.460Z,12.90
2023-04-16T17:57:42.078Z,12.45
2023-04-16T18:00:11.583Z,12.55
2023-04-16T18:02:40.910Z,12.50
2023-04-16T18:05:09.135Z,12.27
2023-04-16T18:07:36.593Z,13.93
2023-04-16T18:10:03.695Z,13.45
2023-04-16T18:12:31.133Z,12.82
2023-04-16T18:14:58.087Z,14.38
2023-04-16T18:17:25.174Z,14.63
2023-04-16T18:19:52.145Z,14.38
2023-04-16T18:22:18.976Z,13.30
2023-04-16T18:24:45.990Z,13.48
2023-04-16T18:27:12.925Z,15.32
2023-04-16T18:29:40.563Z,14.70
2023-04-16T18:32:09.920Z,13.38
2023-04-16T18:34:38.805Z,14.20
2023-04-16T18:37:06.924Z,13.20
2023-04-16T18:39:34.219Z,15.38
2023-04-16T18:42:01.714Z,14.95
2023-04-16T18:44:28.558Z,16.40
2023-04-16T18:46:55.755Z,14.68
2023-04-16T18:49:22.735Z,14.60
2023-04-16T18:51:49.973Z,15.57
2023-04-16T18:54:16.960Z,15.27
2023-04-16T18:56:44.151Z,16.27
2023-04-16T18:59:11.570Z,15.88
2023-04-16T19:01:38.780Z,15.07
2023-04-16T19:04:05.880Z,15.50
2023-04-16T19:06:33.120Z,17.42
2023-04-16T19:09:00.089Z,15.38
2023-04-16T19:11:27.464Z,14.52
2023-04-16T19:13:54.572Z,15.30
2023-04-16T19:16:21.512Z,14.55
2023-04-16T19:18:48.433Z,13.85
2023-04-16T19:21:15.684Z,15.45
2023-04-16T19:23:42.867Z,15.05
2023-04-16T19:26:09.754Z,15.45
2023-04-16T19:41:59.936Z,16.95
2023-04-16T19:44:27.777Z,14.52
2023-04-16T19:46:54.737Z,15.90
2023-04-16T19:49:21.700Z,17.80
2023-04-16T19:51:48.612Z,18.08
2023-04-16T19:54:15.646Z,15.93
2023-04-16T19:56:42.534Z,16.08
2023-04-16T19:59:09.812Z,14.23
2023-04-16T20:01:36.934Z,13.30
2023-04-16T20:04:04.023Z,13.68
2023-04-16T20:06:31.258Z,14.75
2023-04-16T20:08:58.125Z,14.70
2023-04-16T20:11:25.070Z,16.13
2023-04-16T20:13:51.986Z,16.08
2023-04-16T20:16:23.974Z,15.35
2023-04-16T20:18:54.434Z,16.65
2023-04-16T20:21:21.826Z,16.00
2023-04-16T20:23:48.831Z,15.32
2023-04-16T20:26:19.458Z,16.52
2023-04-16T20:28:46.436Z,14.20
2023-04-16T20:31:13.313Z,14.50
2023-04-16T20:33:40.778Z,16.90
2023-04-16T20:36:07.753Z,15.25
2023-04-16T20:38:35.814Z,16.40
2023-04-16T20:41:12.793Z,17.63
2023-04-16T20:43:44.120Z,15.02
2023-04-16T20:46:12.292Z,15.68
2023-04-16T20:48:39.407Z,16.73
2023-04-16T20:51:07.841Z,15.82
2023-04-16T20:53:35.232Z,17.20
2023-04-16T20:56:02.132Z,18.48
2023-04-16T20:58:29.676Z,16.58
2023-04-16T21:00:58.029Z,19.65
2023-04-16T21:03:25.251Z,17.90
2023-04-16T21:05:53.667Z,17.98
2023-04-16T21:08:21.833Z,18.95
2023-04-16T21:10:49.310Z,17.05
2023-04-16T21:13:16.433Z,18.77
2023-04-16T21:15:45.650Z,18.10
2023-04-16T21:18:12.919Z,18.77
2023-04-16T21:20:40.282Z,19.63
2023-04-16T21:23:07.176Z,20.33
2023-04-16T21:25:34.144Z,18.65
2023-04-16T21:28:01.143Z,18.17
2023-04-16T21:30:28.027Z,14.98
2023-04-16T21:32:55.171Z,12.63
2023-04-16T21:35:22.268Z,16.40
2023-04-16T21:37:49.134Z,13.88
2023-04-16T21:40:16.272Z,14.63
2023-04-16T21:42:43.165Z,14.18
2023-04-16T21:45:10.559Z,14.55
2023-04-16T21:47:38.279Z,13.55
2023-04-16T21:50:06.073Z,13.60
2023-04-16T21:52:33.240Z,12.90
2023-04-16T21:55:00.548Z,11.40
2023-04-16T21:57:27.591Z,12.38
2023-04-16T21:59:54.471Z,12.32
2023-04-16T22:02:21.975Z,12.63
2023-04-16T22:04:49.136Z,12.02
2023-04-16T22:07:17.122Z,11.38
2023-04-16T22:09:44.264Z,11.52
2023-04-16T22:12:11.260Z,11.60
2023-04-16T22:14:43.981Z,9.68
2023-04-16T22:17:13.335Z,10.15
2023-04-16T22:19:40.251Z,7.75
2023-04-16T22:22:07.253Z,9.02
2023-04-16T22:24:34.188Z,8.70
2023-04-16T22:27:02.420Z,8.13
2023-04-16T22:29:29.426Z,7.93
2023-04-16T22:31:56.485Z,8.18
2023-04-16T22:34:23.486Z,7.05
2023-04-16T22:36:50.380Z,6.85
2023-04-16T22:39:17.311Z,6.75
2023-04-16T22:41:46.675Z,6.65
2023-04-16T22:44:13.668Z,8.02
2023-04-16T22:46:40.886Z,7.97
2023-04-16T22:49:07.792Z,7.00
2023-04-16T22:51:35.341Z,7.70
2023-04-16T22:54:02.402Z,7.00
2023-04-16T22:56:31.178Z,7.43
2023-04-16T22:58:58.075Z,8.27
2023-04-16T23:01:25.253Z,7.93
2023-04-16T23:03:52.858Z,7.20
2023-04-16T23:06:19.845Z,7.13
2023-04-16T23:08:47.016Z,6.80
2023-04-16T23:11:14.125Z,6.80
2023-04-16T23:13:42.829Z,7.47
2023-04-16T23:16:09.796Z,8.38
2023-04-16T23:18:36.968Z,7.35
2023-04-16T23:21:04.054Z,6.82
2023-04-16T23:23:31.301Z,7.95
2023-04-16T23:25:58.694Z,7.88
2023-04-16T23:28:25.911Z,8.30
2023-04-16T23:30:53.107Z,8.40
2023-04-16T23:33:20.340Z,8.55
2023-04-16T23:35:47.918Z,7.97
2023-04-16T23:38:15.424Z,7.78
2023-04-16T23:40:42.486Z,8.27
2023-04-16T23:43:09.756Z,7.80
2023-04-16T23:45:37.800Z,7.47
2023-04-16T23:48:04.900Z,6.78
2023-04-16T23:50:32.370Z,6.75
2023-04-16T23:52:59.407Z,7.55
2023-04-16T23:55:26.301Z,7.60
2023-04-16T23:57:53.453Z,7.10
